createdAt,value
2018-06-10T00:00:36.843Z,24.97
2018-06-10T00:03:04.407Z,25.83
2018-06-10T00:05:31.999Z,26.87
2018-06-10T00:07:59.372Z,25.67
2018-06-10T00:10:26.822Z,25.73
2018-06-10T00:12:54.173Z,23.67
2018-06-10T00:15:21.543Z,24.67
2018-06-10T00:17:48.914Z,25.50
2018-06-10T00:20:16.304Z,23.23
2018-06-10T00:22:43.625Z,24.10
2018-06-10T00:25:11.005Z,25.53
2018-06-10T00:27:38.349Z,24.20
2018-06-10T00:30:05.673Z,23.20
2018-06-10T00:32:33.035Z,21.50
2018-06-10T00:35:00.453Z,22.53
2018-06-10T00:37:27.864Z,21.03
2018-06-10T00:39:55.262Z,20.67
2018-06-10T00:42:22.677Z,21.47
2018-06-10T00:44:50.007Z,20.53
2018-06-10T00:47:17.361Z,21.97
2018-06-10T00:49:44.710Z,20.37
2018-06-10T00:52:12.053Z,21.50
2018-06-10T00:54:39.548Z,19.93
2018-06-10T00:57:06.916Z,22.83
2018-06-10T00:59:34.308Z,21.70
2018-06-10T01:02:01.664Z,22.50
2018-06-10T01:04:29.038Z,22.10
2018-06-10T01:06:56.364Z,20.83
2018-06-10T01:09:23.783Z,18.67
2018-06-10T01:11:52.063Z,19.23
2018-06-10T01:14:19.406Z,17.53
2018-06-10T01:16:46.889Z,19.13
2018-06-10T01:19:14.263Z,16.90
2018-06-10T01:21:41.598Z,18.20
2018-06-10T01:24:08.931Z,18.37
2018-06-10T01:26:41.628Z,17.90
2018-06-10T01:29:08.940Z,17.00
2018-06-10T01:31:36.373Z,16.73
2018-06-10T01:34:03.741Z,17.33
2018-06-10T01:36:31.124Z,17.67
2018-06-10T01:38:58.475Z,16.37
2018-06-10T01:41:25.900Z,16.00
2018-06-10T01:43:53.554Z,16.20
2018-06-10T01:46:21.151Z,17.07
2018-06-10T01:48:48.543Z,17.33
2018-06-10T01:51:15.939Z,17.70
2018-06-10T01:53:43.318Z,17.80
2018-06-10T01:56:10.656Z,16.77
2018-06-10T01:58:38.109Z,16.73
2018-06-10T02:01:05.496Z,16.20
2018-06-10T02:03:32.899Z,16.87
2018-06-10T02:06:00.235Z,15.97
2018-06-10T02:08:27.674Z,17.80
2018-06-10T02:10:55.035Z,17.00
2018-06-10T02:13:22.360Z,16.30
2018-06-10T02:15:49.741Z,18.37
2018-06-10T02:18:17.148Z,18.53
2018-06-10T02:20:44.583Z,16.23
2018-06-10T02:23:11.911Z,17.07
2018-06-10T02:25:39.289Z,17.50
2018-06-10T02:28:06.745Z,16.17
2018-06-10T02:30:34.109Z,16.73
2018-06-10T02:33:01.546Z,15.67
2018-06-10T02:35:28.913Z,16.23
2018-06-10T02:37:56.297Z,16.97
2018-06-10T02:40:23.697Z,16.70
2018-06-10T02:42:51.056Z,16.83
2018-06-10T02:45:18.365Z,17.23
2018-06-10T02:47:45.682Z,15.57
2018-06-10T02:50:13.105Z,15.70
2018-06-10T02:52:40.479Z,15.37
2018-06-10T02:55:07.825Z,16.50
2018-06-10T02:57:35.318Z,15.80
2018-06-10T03:00:02.677Z,15.17
2018-06-10T03:02:30.130Z,16.40
2018-06-10T03:04:57.446Z,17.33
2018-06-10T03:07:24.758Z,16.37
2018-06-10T03:09:52.242Z,17.57
2018-06-10T03:12:19.681Z,18.17
2018-06-10T03:14:47.441Z,16.93
2018-06-10T03:17:15.014Z,17.67
2018-06-10T03:19:42.344Z,19.20
2018-06-10T03:22:09.676Z,18.80
2018-06-10T03:24:37.011Z,16.30
2018-06-10T03:27:04.564Z,16.70
2018-06-10T03:29:31.913Z,17.37
2018-06-10T03:31:59.199Z,17.23
2018-06-10T03:34:26.569Z,16.90
2018-06-10T03:36:53.929Z,17.77
2018-06-10T03:39:21.317Z,18.10
2018-06-10T03:41:48.685Z,18.73
2018-06-10T03:44:16.034Z,17.80
2018-06-10T03:46:43.553Z,16.70
2018-06-10T03:49:11.009Z,18.40
2018-06-10T03:51:38.325Z,18.63
2018-06-10T03:54:05.814Z,18.33
2018-06-10T03:56:33.139Z,19.03
2018-06-10T03:59:00.480Z,18.97
2018-06-10T04:01:27.867Z,17.23
2018-06-10T04:03:55.250Z,16.50
2018-06-10T04:06:22.617Z,17.67
2018-06-10T04:08:49.962Z,19.40
2018-06-10T04:11:17.366Z,18.50
2018-06-10T04:13:44.713Z,16.47
2018-06-10T04:16:12.137Z,16.90
2018-06-10T04:18:39.433Z,16.50
2018-06-10T04:21:06.850Z,15.90
2018-06-10T04:23:34.262Z,14.67
2018-06-10T04:26:01.630Z,15.90
2018-06-10T04:28:29.044Z,15.03
2018-06-10T04:30:56.346Z,15.40
2018-06-10T04:33:23.727Z,15.03
2018-06-10T04:35:51.046Z,16.00
2018-06-10T04:38:18.392Z,15.70
2018-06-10T04:40:45.750Z,17.00
2018-06-10T04:43:13.117Z,17.17
2018-06-10T04:45:40.476Z,15.30
2018-06-10T04:48:07.826Z,14.60
2018-06-10T04:50:35.292Z,13.13
2018-06-10T04:53:02.641Z,12.23
2018-06-10T04:55:30.012Z,12.50
2018-06-10T04:57:57.365Z,12.73
2018-06-10T05:00:24.741Z,12.77
2018-06-10T05:02:52.062Z,10.37
2018-06-10T05:05:19.424Z,10.60
2018-06-10T05:07:46.805Z,10.13
2018-06-10T05:10:14.211Z,10.60
2018-06-10T05:12:41.945Z,9.43
2018-06-10T05:15:09.314Z,11.00
2018-06-10T05:17:36.653Z,10.57
2018-06-10T05:20:04.203Z,10.60
2018-06-10T05:22:31.492Z,11.03
2018-06-10T05:24:58.800Z,11.20
2018-06-10T05:27:26.156Z,10.70
2018-06-10T05:29:53.507Z,10.50
2018-06-10T05:32:21.106Z,10.50
2018-06-10T05:34:48.462Z,11.90
2018-06-10T05:37:15.849Z,10.70
2018-06-10T05:39:44.190Z,8.97
2018-06-10T05:42:11.537Z,9.97
2018-06-10T05:44:39.078Z,10.60
2018-06-10T05:47:06.481Z,9.63
2018-06-10T05:49:33.799Z,10.43
2018-06-10T05:52:01.226Z,11.27
2018-06-10T05:54:28.624Z,10.50
2018-06-10T05:56:56.005Z,10.83
2018-06-10T05:59:23.386Z,11.07
2018-06-10T06:01:51.224Z,10.27
2018-06-10T06:04:18.514Z,10.63
2018-06-10T06:06:46.191Z,10.77
2018-06-10T06:09:13.564Z,10.00
2018-06-10T06:11:40.897Z,9.23
2018-06-10T06:14:08.283Z,11.70
2018-06-10T06:16:35.734Z,10.53
2018-06-10T06:19:03.064Z,9.43
2018-06-10T06:21:30.464Z,10.83
2018-06-10T06:23:57.780Z,10.10
2018-06-10T06:26:25.172Z,11.33
2018-06-10T06:28:52.752Z,9.80
2018-06-10T06:31:20.101Z,10.73
2018-06-10T06:33:47.486Z,9.40
2018-06-10T06:36:15.292Z,9.70
2018-06-10T06:38:42.616Z,12.30
2018-06-10T06:41:09.966Z,11.37
2018-06-10T06:43:37.308Z,9.30
2018-06-10T06:46:04.634Z,10.30
2018-06-10T06:48:32.002Z,10.40
2018-06-10T06:50:59.350Z,10.23
2018-06-10T06:53:26.677Z,11.47
2018-06-10T06:55:54.048Z,9.63
2018-06-10T06:58:21.414Z,11.80
2018-06-10T07:00:48.814Z,10.60
2018-06-10T07:03:16.175Z,11.10
2018-06-10T07:05:43.578Z,11.07
2018-06-10T07:08:10.989Z,10.60
2018-06-10T07:10:38.344Z,11.63
2018-06-10T07:13:05.819Z,11.27
2018-06-10T07:15:33.154Z,11.77
2018-06-10T07:18:00.588Z,11.77
2018-06-10T07:20:27.939Z,13.00
2018-06-10T07:22:55.419Z,13.60
2018-06-10T07:25:22.785Z,14.90
2018-06-10T07:27:50.195Z,12.90
2018-06-10T07:30:17.832Z,13.37
2018-06-10T07:32:45.280Z,14.50
2018-06-10T07:35:12.886Z,13.20
2018-06-10T07:37:40.294Z,16.43
2018-06-10T07:40:08.140Z,15.47
2018-06-10T07:42:35.564Z,14.10
2018-06-10T07:45:03.016Z,14.30
2018-06-10T07:47:30.401Z,13.37
2018-06-10T07:49:58.188Z,14.40
2018-06-10T07:52:25.545Z,14.60
2018-06-10T07:54:52.945Z,12.87
2018-06-10T07:57:20.312Z,12.20
2018-06-10T07:59:47.712Z,14.60
2018-06-10T08:02:15.156Z,13.00
2018-06-10T08:04:42.610Z,14.63
2018-06-10T08:07:10.044Z,12.20
2018-06-10T08:09:37.418Z,11.90
2018-06-10T08:12:04.858Z,12.73
2018-06-10T08:14:32.323Z,13.47
2018-06-10T08:16:59.770Z,12.70
2018-06-10T08:19:27.144Z,11.27
2018-06-10T08:21:55.069Z,12.60
2018-06-10T08:24:22.428Z,11.50
2018-06-10T08:26:50.328Z,13.50
2018-06-10T08:29:17.721Z,12.20
2018-06-10T08:31:45.129Z,16.57
2018-06-10T08:34:12.483Z,15.20
2018-06-10T08:36:39.802Z,17.63
2018-06-10T08:39:08.140Z,15.47
2018-06-10T08:41:35.552Z,13.70
2018-06-10T08:44:02.971Z,16.67
2018-06-10T08:46:31.148Z,16.47
2018-06-10T08:48:58.604Z,18.20
2018-06-10T08:51:26.357Z,16.17
2018-06-10T08:53:53.753Z,15.97
2018-06-10T08:56:21.142Z,16.83
2018-06-10T08:58:48.538Z,15.43
2018-06-10T09:01:15.917Z,14.40
2018-06-10T09:03:43.320Z,13.77
2018-06-10T09:06:10.687Z,13.07
2018-06-10T09:08:38.056Z,12.97
2018-06-10T09:11:05.493Z,12.33
2018-06-10T09:13:33.320Z,10.80
2018-06-10T09:16:00.883Z,12.17
2018-06-10T09:18:28.705Z,12.53
2018-06-10T09:20:56.122Z,11.70
2018-06-10T09:23:23.549Z,11.07
2018-06-10T09:25:51.002Z,12.00
2018-06-10T09:28:18.429Z,10.90
2018-06-10T09:30:45.794Z,13.37
2018-06-10T09:33:13.796Z,11.33
2018-06-10T09:35:41.223Z,11.57
2018-06-10T09:38:08.500Z,10.00
2018-06-10T09:40:35.986Z,10.67
2018-06-10T09:43:03.462Z,11.80
2018-06-10T09:45:30.771Z,11.20
2018-06-10T09:47:58.290Z,12.67
2018-06-10T09:50:26.067Z,11.83
2018-06-10T09:52:53.869Z,12.50
2018-06-10T09:55:21.680Z,12.30
2018-06-10T09:57:49.598Z,14.47
2018-06-10T10:00:23.637Z,14.10
2018-06-10T10:02:52.057Z,14.00
2018-06-10T10:05:19.661Z,12.67
2018-06-10T10:07:47.154Z,13.37
2018-06-10T10:10:14.810Z,12.83
2018-06-10T10:12:42.637Z,12.80
2018-06-10T10:15:09.994Z,11.70
2018-06-10T10:17:37.363Z,12.63
2018-06-10T10:20:04.830Z,11.80
2018-06-10T10:22:32.433Z,11.07
2018-06-10T10:24:59.897Z,9.80
2018-06-10T10:27:27.327Z,11.33
2018-06-10T10:29:54.666Z,9.63
2018-06-10T10:32:22.135Z,10.13
2018-06-10T10:34:49.874Z,11.07
2018-06-10T10:37:17.500Z,11.30
2018-06-10T10:39:45.111Z,11.10
2018-06-10T10:42:12.807Z,10.10
2018-06-10T10:44:40.247Z,11.13
2018-06-10T10:47:07.632Z,11.50
2018-06-10T10:49:35.262Z,10.77
2018-06-10T10:52:02.745Z,9.47
2018-06-10T10:54:30.218Z,8.73
2018-06-10T10:56:57.644Z,9.20
2018-06-10T10:59:25.002Z,10.43
2018-06-10T11:01:52.876Z,10.37
2018-06-10T11:04:20.362Z,10.37
2018-06-10T11:06:48.453Z,9.43
2018-06-10T11:09:15.884Z,10.10
2018-06-10T11:11:43.341Z,9.30
2018-06-10T11:14:10.994Z,10.10
2018-06-10T11:16:38.425Z,10.73
2018-06-10T11:19:05.856Z,9.80
2018-06-10T11:21:33.298Z,9.87
2018-06-10T11:24:00.620Z,10.47
2018-06-10T11:26:28.203Z,9.67
2018-06-10T11:28:55.629Z,9.60
2018-06-10T11:31:23.835Z,8.20
2018-06-10T11:33:51.510Z,8.13
2018-06-10T11:36:18.933Z,8.70
2018-06-10T11:38:46.666Z,9.50
2018-06-10T11:41:14.050Z,9.53
2018-06-10T11:43:41.679Z,8.50
2018-06-10T11:46:09.332Z,9.70
2018-06-10T11:48:37.065Z,10.13
2018-06-10T11:51:04.552Z,8.87
2018-06-10T11:53:32.813Z,8.93
2018-06-10T11:56:00.619Z,8.67
2018-06-10T11:58:28.183Z,9.57
2018-06-10T12:00:56.976Z,10.13
2018-06-10T12:03:24.438Z,9.40
2018-06-10T12:05:51.924Z,8.67
2018-06-10T12:08:19.887Z,8.83
2018-06-10T12:10:47.437Z,10.20
2018-06-10T12:13:15.261Z,8.60
2018-06-10T12:21:11.358Z,9.33
2018-06-10T15:05:49.187Z,7.93
2018-06-10T15:08:18.294Z,8.53
2018-06-10T15:10:46.757Z,7.70
2018-06-10T15:13:14.039Z,8.87
2018-06-10T15:15:41.915Z,8.23
2018-06-10T17:04:07.817Z,7.13
2018-06-10T17:06:36.664Z,7.17
2018-06-10T17:09:06.225Z,7.03
2018-06-10T17:11:33.592Z,7.10
2018-06-10T17:14:01.872Z,7.40
2018-06-10T17:16:29.360Z,7.80
2018-06-10T17:18:57.077Z,6.87
2018-06-10T17:21:24.933Z,7.80
2018-06-10T17:23:52.808Z,7.10
2018-06-10T17:26:21.278Z,7.23
2018-06-10T17:28:48.816Z,7.50
2018-06-10T17:31:16.160Z,7.23
2018-06-10T17:33:43.560Z,7.00
2018-06-10T17:36:10.929Z,7.50
2018-06-10T17:38:38.658Z,7.30
2018-06-10T17:41:06.125Z,6.43
2018-06-10T17:43:33.894Z,6.10
2018-06-10T17:46:01.310Z,6.50
2018-06-10T17:48:28.945Z,6.90
2018-06-10T17:50:56.278Z,6.57
2018-06-10T17:53:23.580Z,5.60
2018-06-10T17:55:51.106Z,5.97
2018-06-10T17:58:18.524Z,6.40
2018-06-10T18:00:45.892Z,6.00
2018-06-10T18:03:13.514Z,6.33
2018-06-10T18:05:41.040Z,6.73
2018-06-10T18:08:08.631Z,7.17
2018-06-10T18:10:35.985Z,6.80
2018-06-10T18:13:03.768Z,7.60
2018-06-10T18:15:31.279Z,7.47
2018-06-10T18:17:58.923Z,6.17
2018-06-10T18:20:26.309Z,7.50
2018-06-10T18:22:53.718Z,7.60
2018-06-10T18:25:21.161Z,7.70
2018-06-10T18:27:48.766Z,7.60
2018-06-10T18:30:16.587Z,7.67
2018-06-10T18:32:44.016Z,7.20
2018-06-10T18:35:11.405Z,7.30
2018-06-10T18:37:38.764Z,6.93
2018-06-10T18:40:06.123Z,6.77
2018-06-10T18:42:33.515Z,7.20
2018-06-10T18:45:00.976Z,6.90
2018-06-10T18:47:28.336Z,7.07
2018-06-10T18:49:55.639Z,6.87
2018-06-10T18:52:23.108Z,7.23
2018-06-10T18:54:50.494Z,6.50
2018-06-10T18:57:17.893Z,6.40
2018-06-10T18:59:45.269Z,6.20
2018-06-10T19:02:12.845Z,6.23
2018-06-10T19:04:40.256Z,5.80
2018-06-10T19:07:07.614Z,6.40
2018-06-10T19:09:35.067Z,5.77
2018-06-10T19:12:02.583Z,6.27
2018-06-10T19:14:30.104Z,6.93
2018-06-10T19:16:57.449Z,6.93
2018-06-10T19:19:24.766Z,7.13
2018-06-10T19:21:52.065Z,6.20
2018-06-10T19:24:19.498Z,11.10
2018-06-10T19:26:46.846Z,7.17
2018-06-10T19:29:14.214Z,7.37
2018-06-10T19:31:41.658Z,7.47
2018-06-10T19:34:09.018Z,6.67
2018-06-10T19:36:36.429Z,7.40
2018-06-10T19:39:04.005Z,7.03
2018-06-10T19:41:31.353Z,7.07
2018-06-10T19:43:58.761Z,7.37
2018-06-10T19:46:26.220Z,8.13
2018-06-10T19:48:53.885Z,7.27
2018-06-10T19:51:21.403Z,7.27
2018-06-10T19:53:48.782Z,7.80
2018-06-10T19:56:17.217Z,7.60
2018-06-10T19:58:45.333Z,7.27
2018-06-10T20:01:12.817Z,7.03
2018-06-10T20:03:40.168Z,7.63
2018-06-10T20:06:07.597Z,7.20
2018-06-10T20:08:34.994Z,9.60
2018-06-10T20:11:02.768Z,9.80
2018-06-10T20:13:30.114Z,9.30
2018-06-10T20:15:57.888Z,12.40
2018-06-10T20:18:25.301Z,12.50
2018-06-10T20:20:52.613Z,12.33
2018-06-10T20:23:19.997Z,12.53
2018-06-10T20:25:47.457Z,11.17
2018-06-10T20:28:14.859Z,12.67
2018-06-10T20:30:42.315Z,11.40
2018-06-10T20:33:09.532Z,11.60
2018-06-10T20:35:36.882Z,8.17
2018-06-10T20:38:04.235Z,6.60
2018-06-10T20:40:31.612Z,4.40
2018-06-10T20:42:58.984Z,3.50
2018-06-10T20:45:26.348Z,7.37
2018-06-10T20:47:53.716Z,1.70
2018-06-10T20:50:21.204Z,1.93
2018-06-10T20:52:48.627Z,1.50
2018-06-10T20:55:16.215Z,2.43
2018-06-10T20:57:43.607Z,1.90
2018-06-10T21:00:11.042Z,4.50
2018-06-10T21:02:38.477Z,3.03
2018-06-10T21:05:06.376Z,2.70
2018-06-10T21:07:33.812Z,4.27
2018-06-10T21:10:01.780Z,2.20
2018-06-10T21:12:29.155Z,1.93
2018-06-10T21:14:56.612Z,3.10
2018-06-10T21:17:24.013Z,2.00
2018-06-10T21:19:51.419Z,2.00
2018-06-10T21:22:18.915Z,3.53
2018-06-10T21:24:46.352Z,2.03
2018-06-10T21:27:13.788Z,5.20
2018-06-10T21:29:41.288Z,2.83
2018-06-10T21:32:08.601Z,2.10
2018-06-10T21:34:36.017Z,2.83
2018-06-10T21:37:03.382Z,1.70
2018-06-10T21:39:30.795Z,1.77
2018-06-10T21:41:58.161Z,4.43
2018-06-10T21:44:25.500Z,1.87
2018-06-10T21:46:52.925Z,2.37
2018-06-10T21:49:20.263Z,1.97
2018-06-10T21:51:47.619Z,1.47
2018-06-10T21:54:14.992Z,3.63
2018-06-10T21:56:42.258Z,2.90
2018-06-10T21:59:09.789Z,1.50
2018-06-10T22:01:37.276Z,1.80
2018-06-10T22:04:04.637Z,2.13
2018-06-10T22:06:31.975Z,2.10
2018-06-10T22:08:59.429Z,2.17
2018-06-10T22:11:27.000Z,1.90
2018-06-10T22:13:54.413Z,2.20
2018-06-10T22:16:21.795Z,2.43
2018-06-10T22:18:49.321Z,1.60
2018-06-10T22:21:16.681Z,2.90
2018-06-10T22:23:44.068Z,1.87
2018-06-10T22:26:11.416Z,2.10
2018-06-10T22:28:38.768Z,2.97
2018-06-10T22:31:06.402Z,2.03
2018-06-10T22:33:33.737Z,2.20
2018-06-10T22:36:01.150Z,2.20
2018-06-10T22:38:28.470Z,2.70
2018-06-10T22:40:55.807Z,5.70
2018-06-10T22:43:23.189Z,3.07
2018-06-10T22:45:50.747Z,2.77
2018-06-10T22:48:18.466Z,4.40
2018-06-10T22:50:45.806Z,3.50
2018-06-10T22:53:18.569Z,3.43
2018-06-10T22:55:45.921Z,2.80
2018-06-10T22:58:13.241Z,4.27
2018-06-10T23:00:40.602Z,3.80
2018-06-10T23:03:07.989Z,3.13
2018-06-10T23:05:35.286Z,3.73
2018-06-10T23:08:02.670Z,3.70
2018-06-10T23:10:29.998Z,4.00
2018-06-10T23:12:57.351Z,4.23
2018-06-10T23:15:24.669Z,4.27
2018-06-10T23:17:52.021Z,4.30
2018-06-10T23:20:19.370Z,4.50
2018-06-10T23:22:46.803Z,4.83
2018-06-10T23:25:14.189Z,4.67
2018-06-10T23:27:41.663Z,4.80
2018-06-10T23:30:09.099Z,4.63
2018-06-10T23:32:36.508Z,4.90
2018-06-10T23:35:03.905Z,5.83
2018-06-10T23:37:31.303Z,5.00
2018-06-10T23:39:58.680Z,5.03
2018-06-10T23:42:26.016Z,5.73
2018-06-10T23:44:53.665Z,4.90
2018-06-10T23:47:21.210Z,6.70
2018-06-10T23:49:48.569Z,5.60
2018-06-10T23:52:15.907Z,6.53
2018-06-10T23:54:43.261Z,6.07
2018-06-10T23:57:10.613Z,6.80
2018-06-10T23:59:37.998Z,6.40
